Time;durP1;ratioP1;P1;durP2;ratioP2;P2;SDS_P1;SDS_P2;PMS_P1;PMS_P2;Temp;Humidity;BMP_temperature;BMP_pressure;BME280_temperature;BME280_humidity;BME280_pressure;Samples;Min_cycle;Max_cycle;Signal;HPM_P1;HPM_P2
2022/06/02 00:02:20;;;;;;;10.60;6.20;;;10.00;99.90;;;;;;4877162;29;20044;-58
2022/06/02 00:05:25;;;;;;;10.75;5.25;;;9.90;99.90;;;;;;4885826;29;20051;-59
2022/06/02 00:08:04;;;;;;;7.82;5.00;;;9.90;99.90;;;;;;4887044;29;20059;-57
2022/06/02 00:10:51;;;;;;;10.65;5.82;;;9.90;99.90;;;;;;4886739;29;20057;-57
2022/06/02 00:13:41;;;;;;;12.52;5.97;;;9.80;99.90;;;;;;4886693;29;20041;-56
2022/06/02 00:16:17;;;;;;;10.27;5.55;;;9.80;99.90;;;;;;4885667;29;20048;-59
2022/06/02 00:19:05;;;;;;;9.90;5.72;;;9.70;99.90;;;;;;4890399;29;20517;-57
2022/06/02 00:21:55;;;;;;;8.85;5.63;;;9.70;99.90;;;;;;4886513;29;20083;-58
2022/06/02 00:24:40;;;;;;;12.07;6.93;;;9.70;99.90;;;;;;4887291;29;20142;-57
2022/06/02 00:27:47;;;;;;;11.35;6.15;;;9.60;99.90;;;;;;4885988;29;20040;-58
2022/06/02 00:30:37;;;;;;;11.27;6.20;;;9.60;99.90;;;;;;4868920;29;20083;-60
2022/06/02 00:33:21;;;;;;;9.90;6.75;;;9.50;99.90;;;;;;4883917;29;20064;-57
2022/06/02 00:35:53;;;;;;;11.27;6.05;;;9.50;99.90;;;;;;4885321;29;20496;-58
2022/06/02 00:38:24;;;;;;;10.23;5.50;;;9.40;99.90;;;;;;4881020;29;20505;-58
2022/06/02 00:40:52;;;;;;;8.40;5.50;;;9.40;99.90;;;;;;4886172;29;20060;-58
2022/06/02 00:43:28;;;;;;;13.02;6.63;;;9.40;99.90;;;;;;4886045;29;20041;-57
2022/06/02 00:46:14;;;;;;;8.43;5.65;;;9.40;99.90;;;;;;4885530;29;20056;-58
2022/06/02 00:49:07;;;;;;;11.68;5.72;;;9.30;99.90;;;;;;4885994;29;20409;-58
2022/06/02 00:52:13;;;;;;;14.80;6.80;;;9.30;99.90;;;;;;4885667;29;20484;-56
2022/06/02 00:58:12;;;;;;;13.38;7.20;;;9.10;99.90;;;;;;4884223;29;20060;-58
2022/06/02 01:00:54;;;;;;;9.95;6.07;;;9.10;99.90;;;;;;4885995;29;20064;-57
2022/06/02 01:03:24;;;;;;;10.68;6.38;;;9.10;99.90;;;;;;4881822;29;20059;-58
2022/06/02 01:06:01;;;;;;;11.48;6.25;;;9.00;99.90;;;;;;4881250;29;20279;-57
2022/06/02 01:08:54;;;;;;;11.45;6.88;;;9.00;99.90;;;;;;4884367;29;20048;-56
2022/06/02 01:11:37;;;;;;;12.07;7.05;;;8.90;99.90;;;;;;4885472;29;20417;-58
2022/06/02 01:14:11;;;;;;;13.77;7.35;;;8.90;99.90;;;;;;4881550;29;20045;-57
2022/06/02 01:17:15;;;;;;;19.40;7.85;;;8.80;99.90;;;;;;4885948;29;20501;-57
2022/06/02 01:20:06;;;;;;;12.02;7.35;;;8.80;99.90;;;;;;4883546;29;20053;-57
2022/06/02 01:23:05;;;;;;;16.88;7.43;;;8.70;99.90;;;;;;4886443;29;20071;-57
2022/06/02 01:25:51;;;;;;;11.07;6.68;;;8.70;99.90;;;;;;4884153;29;20045;-56
2022/06/02 01:28:24;;;;;;;11.68;6.20;;;8.70;99.90;;;;;;4887133;29;20448;-56
2022/06/02 01:31:10;;;;;;;14.20;6.28;;;8.70;99.90;;;;;;4882836;29;20512;-56
2022/06/02 01:34:11;;;;;;;14.77;6.78;;;8.60;99.90;;;;;;4887166;29;20507;-56
2022/06/02 01:36:42;;;;;;;16.17;6.70;;;8.60;99.90;;;;;;4886615;29;20055;-58
2022/06/02 01:39:34;;;;;;;12.02;6.38;;;8.60;99.90;;;;;;4886946;29;20056;-58
2022/06/02 01:42:14;;;;;;;13.35;6.68;;;8.50;99.90;;;;;;4888803;29;20052;-58
2022/06/02 01:44:45;;;;;;;10.63;6.63;;;8.50;99.90;;;;;;4885681;29;20049;-55
2022/06/02 01:47:22;;;;;;;13.02;7.30;;;8.40;99.90;;;;;;4889425;29;20052;-59
2022/06/02 01:49:52;;;;;;;13.48;7.13;;;8.40;99.90;;;;;;4889493;29;20057;-58
2022/06/02 01:52:37;;;;;;;12.02;6.53;;;8.40;99.90;;;;;;4889611;29;20048;-57
2022/06/02 01:55:23;;;;;;;11.13;6.70;;;8.30;99.90;;;;;;4891395;29;20048;-56
2022/06/02 01:58:11;;;;;;;13.43;6.22;;;8.30;99.90;;;;;;4891423;29;20397;-58
2022/06/02 02:00:41;;;;;;;9.68;6.15;;;8.20;99.90;;;;;;4884295;29;20052;-56
2022/06/02 02:03:11;;;;;;;15.43;6.30;;;8.30;99.90;;;;;;4890342;29;20056;-58
2022/06/02 02:06:18;;;;;;;11.60;6.82;;;8.20;99.90;;;;;;4889977;29;20048;-58
2022/06/02 02:09:09;;;;;;;11.73;7.40;;;8.20;99.90;;;;;;4890884;29;20048;-58
2022/06/02 02:11:58;;;;;;;12.52;6.57;;;8.20;99.90;;;;;;4891760;29;20051;-57
2022/06/02 02:15:26;;;;;;;12.90;7.67;;;8.10;99.90;;;;;;4890557;29;20052;-58
2022/06/02 02:18:16;;;;;;;13.60;7.28;;;8.10;99.90;;;;;;4837814;29;20655;-58
2022/06/02 02:21:05;;;;;;;15.40;8.30;;;8.00;99.90;;;;;;4888814;29;20063;-58
2022/06/02 02:23:54;;;;;;;13.85;6.82;;;8.00;99.90;;;;;;4886276;29;20056;-59
2022/06/02 02:26:39;;;;;;;14.00;6.77;;;8.00;99.90;;;;;;4888622;29;20041;-58
2022/06/02 02:29:17;;;;;;;12.35;6.93;;;8.00;99.90;;;;;;4874686;29;20509;-58
2022/06/02 02:32:20;;;;;;;13.82;7.13;;;7.90;99.90;;;;;;4891268;29;20044;-58
2022/06/02 02:35:12;;;;;;;12.52;6.53;;;7.90;99.90;;;;;;4888474;29;20048;-59
2022/06/02 02:37:48;;;;;;;12.77;6.88;;;7.80;99.90;;;;;;4891604;29;20052;-57
2022/06/02 02:40:27;;;;;;;12.73;6.75;;;7.70;99.90;;;;;;4887771;29;20052;-58
2022/06/02 02:42:58;;;;;;;14.77;6.63;;;7.70;99.90;;;;;;4889810;29;20060;-59
2022/06/02 02:45:46;;;;;;;13.43;7.05;;;7.60;99.90;;;;;;4887976;29;20044;-58
2022/06/02 02:48:35;;;;;;;14.85;7.63;;;7.60;99.90;;;;;;4889669;29;20493;-58
2022/06/02 02:51:09;;;;;;;12.40;7.25;;;7.60;99.90;;;;;;4890920;29;20064;-58
2022/06/02 02:54:08;;;;;;;14.35;7.60;;;7.60;99.90;;;;;;4892544;29;20610;-58
2022/06/02 02:56:52;;;;;;;12.43;7.13;;;7.50;99.90;;;;;;4885497;29;20045;-57
2022/06/02 02:59:30;;;;;;;15.50;8.23;;;7.50;99.90;;;;;;4888481;29;20047;-58
2022/06/02 03:02:34;;;;;;;13.65;7.32;;;7.50;99.90;;;;;;4889536;29;20052;-58
2022/06/02 03:05:52;;;;;;;19.23;8.77;;;7.50;99.90;;;;;;4903504;29;20388;-58
2022/06/02 03:08:49;;;;;;;14.45;8.10;;;7.50;99.90;;;;;;4878887;29;20055;-57
2022/06/02 03:11:31;;;;;;;18.70;7.88;;;7.40;99.90;;;;;;4889678;29;20056;-58
2022/06/02 03:14:18;;;;;;;15.85;8.23;;;7.40;99.90;;;;;;4888148;29;20579;-58
2022/06/02 03:17:00;;;;;;;13.75;7.65;;;7.40;99.90;;;;;;4890034;29;20048;-59
2022/06/02 03:19:32;;;;;;;12.20;7.28;;;7.40;99.90;;;;;;4890408;29;20060;-58
2022/06/02 03:22:12;;;;;;;14.98;8.18;;;7.40;99.90;;;;;;4889344;29;20044;-58
2022/06/02 03:25:17;;;;;;;11.80;6.63;;;7.30;99.90;;;;;;4888898;29;21822;-57
2022/06/02 03:27:52;;;;;;;13.32;7.30;;;7.30;99.90;;;;;;4888682;29;20049;-59
2022/06/02 03:30:27;;;;;;;12.88;7.03;;;7.30;99.90;;;;;;4886660;29;20564;-58
2022/06/02 03:33:00;;;;;;;16.90;8.32;;;7.30;99.90;;;;;;4886998;29;20052;-57
2022/06/02 03:35:28;;;;;;;14.85;8.23;;;7.20;99.90;;;;;;4889378;29;21610;-57
2022/06/02 03:38:17;;;;;;;15.18;8.55;;;7.20;99.90;;;;;;4889944;29;20052;-56
2022/06/02 03:41:22;;;;;;;14.07;7.13;;;7.20;99.90;;;;;;4904884;29;20054;-55
2022/06/02 03:44:21;;;;;;;18.35;8.63;;;7.20;99.90;;;;;;4889041;29;20049;-55
2022/06/02 03:47:30;;;;;;;16.23;8.70;;;7.10;99.90;;;;;;4881694;29;20052;-56
2022/06/02 03:50:35;;;;;;;16.63;8.20;;;7.10;99.90;;;;;;4865590;29;20513;-57
2022/06/02 03:53:33;;;;;;;15.50;8.15;;;7.10;99.90;;;;;;4888783;29;20044;-57
2022/06/02 03:56:23;;;;;;;13.35;7.40;;;7.00;99.90;;;;;;4887216;29;20057;-58
2022/06/02 03:59:24;;;;;;;17.35;8.68;;;7.00;99.90;;;;;;4887894;29;20041;-56
2022/06/02 04:02:10;;;;;;;13.93;7.88;;;7.00;99.90;;;;;;4893670;29;20056;-56
2022/06/02 04:04:54;;;;;;;20.92;9.02;;;7.00;99.90;;;;;;4887700;29;20040;-56
2022/06/02 04:07:36;;;;;;;13.98;8.10;;;7.00;99.90;;;;;;4887694;29;20045;-58
2022/06/02 04:10:12;;;;;;;28.50;8.98;;;7.00;99.90;;;;;;4888737;29;20055;-58
2022/06/02 04:16:08;;;;;;;13.73;7.43;;;7.00;99.90;;;;;;4888358;29;20059;-56
2022/06/02 04:18:46;;;;;;;14.75;7.75;;;6.90;99.90;;;;;;4886216;29;20045;-57
2022/06/02 04:21:52;;;;;;;15.48;8.45;;;6.90;99.90;;;;;;4885939;29;20059;-57
2022/06/02 04:24:36;;;;;;;13.85;7.90;;;6.90;99.90;;;;;;4886943;29;20052;-58
2022/06/02 04:27:27;;;;;;;13.77;7.38;;;6.90;99.90;;;;;;4888380;29;20055;-59
2022/06/02 04:30:01;;;;;;;16.63;8.60;;;6.90;99.90;;;;;;4887829;29;20064;-58
2022/06/02 04:32:57;;;;;;;17.15;8.85;;;6.90;99.90;;;;;;4889045;29;20545;-57
2022/06/02 04:35:49;;;;;;;12.40;7.43;;;6.90;99.90;;;;;;4884804;29;20048;-58
2022/06/02 04:38:19;;;;;;;18.05;8.88;;;6.80;99.90;;;;;;4887171;29;20049;-58
2022/06/02 04:41:07;;;;;;;14.95;8.70;;;6.90;99.90;;;;;;4888485;29;20048;-58
2022/06/02 04:44:03;;;;;;;18.65;8.95;;;6.90;99.90;;;;;;4887268;29;20048;-56
2022/06/02 04:46:59;;;;;;;16.90;9.32;;;6.90;99.90;;;;;;4873757;29;20048;-57
2022/06/02 04:49:40;;;;;;;17.33;9.30;;;6.90;99.90;;;;;;4880283;29;20076;-57
2022/06/02 04:52:35;;;;;;;17.83;8.85;;;7.00;99.90;;;;;;4884874;29;20052;-56
2022/06/02 04:55:33;;;;;;;15.40;8.57;;;7.00;99.90;;;;;;4884618;29;20067;-56
2022/06/02 04:58:27;;;;;;;17.98;9.00;;;7.00;99.90;;;;;;4884601;29;20047;-58
2022/06/02 05:01:37;;;;;;;17.17;9.55;;;7.00;99.90;;;;;;4882793;29;20068;-56
2022/06/02 05:04:24;;;;;;;18.05;9.55;;;7.00;99.90;;;;;;4870774;29;20511;-58
2022/06/02 05:07:37;;;;;;;18.58;9.73;;;7.10;99.90;;;;;;4878299;29;20055;-57
2022/06/02 05:10:08;;;;;;;18.58;10.35;;;7.10;99.90;;;;;;4886785;29;20044;-55
2022/06/02 05:12:54;;;;;;;16.42;9.32;;;7.20;99.90;;;;;;4883269;29;20370;-56
2022/06/02 05:15:46;;;;;;;20.15;10.13;;;7.20;99.90;;;;;;4885558;29;20048;-56
2022/06/02 05:18:51;;;;;;;18.60;9.32;;;7.20;99.90;;;;;;4882126;29;20059;-57
2022/06/02 05:21:43;;;;;;;20.08;8.70;;;7.30;99.90;;;;;;4883122;29;20052;-58
2022/06/02 05:24:48;;;;;;;17.52;9.55;;;7.30;99.90;;;;;;4883390;29;20063;-57
2022/06/02 05:27:46;;;;;;;21.80;10.60;;;7.40;99.90;;;;;;4883824;29;20045;-57
2022/06/02 05:30:17;;;;;;;21.25;11.23;;;7.40;99.90;;;;;;4881905;29;20053;-58
2022/06/02 05:33:26;;;;;;;20.67;9.68;;;7.50;99.90;;;;;;4882581;29;20095;-57
2022/06/02 05:36:06;;;;;;;24.97;11.27;;;7.50;99.90;;;;;;4881364;29;20060;-57
2022/06/02 05:39:04;;;;;;;23.95;12.63;;;7.60;99.90;;;;;;4882628;29;20052;-57
2022/06/02 05:41:40;;;;;;;24.83;13.35;;;7.70;99.90;;;;;;4882564;29;20570;-58
2022/06/02 05:44:29;;;;;;;24.75;13.80;;;7.80;99.90;;;;;;4884076;29;20052;-57
2022/06/02 05:46:59;;;;;;;29.70;14.35;;;7.80;99.90;;;;;;4874450;29;20059;-58
2022/06/02 05:49:48;;;;;;;28.63;14.43;;;7.90;99.90;;;;;;4885645;29;20048;-56
2022/06/02 05:52:35;;;;;;;24.98;14.23;;;8.00;99.90;;;;;;4883155;29;20048;-57
2022/06/02 05:55:42;;;;;;;27.25;14.45;;;8.10;99.90;;;;;;4881853;29;20040;-57
2022/06/02 05:58:21;;;;;;;31.42;15.48;;;8.20;99.90;;;;;;4883243;29;20513;-58
2022/06/02 06:01:01;;;;;;;31.85;16.25;;;8.30;99.90;;;;;;4882928;29;20060;-56
2022/06/02 06:03:53;;;;;;;31.52;15.63;;;8.40;99.90;;;;;;4885143;29;20416;-58
2022/06/02 06:06:47;;;;;;;33.95;17.27;;;8.50;99.90;;;;;;4883306;29;20051;-57
2022/06/02 06:09:43;;;;;;;34.00;16.13;;;8.60;99.90;;;;;;4882995;29;20401;-58
2022/06/02 06:12:31;;;;;;;36.10;17.73;;;8.70;99.90;;;;;;4885502;29;20065;-58
2022/06/02 06:15:08;;;;;;;35.80;18.67;;;8.80;99.90;;;;;;4883952;29;20056;-58
2022/06/02 06:17:42;;;;;;;32.85;17.88;;;9.00;99.90;;;;;;4882148;29;20068;-58
2022/06/02 06:20:36;;;;;;;35.33;17.80;;;9.10;99.90;;;;;;4880154;29;20060;-56
2022/06/02 06:23:38;;;;;;;38.33;19.02;;;9.20;99.90;;;;;;4884637;29;20044;-56
2022/06/02 06:26:44;;;;;;;41.25;19.10;;;9.30;99.90;;;;;;4867449;29;20053;-57
2022/06/02 06:29:34;;;;;;;36.88;17.95;;;9.50;99.90;;;;;;4882167;29;20044;-57
2022/06/02 06:32:17;;;;;;;38.25;18.17;;;9.70;99.90;;;;;;4882188;29;20501;-56
2022/06/02 06:35:06;;;;;;;31.85;17.85;;;9.90;99.90;;;;;;4879817;29;20044;-57
2022/06/02 06:37:58;;;;;;;32.10;16.07;;;10.00;99.90;;;;;;4884899;29;20486;-59
2022/06/02 06:40:58;;;;;;;30.25;16.02;;;10.20;99.90;;;;;;4885108;29;20055;-58
2022/06/02 06:43:57;;;;;;;26.37;15.37;;;10.30;99.90;;;;;;4885738;29;20409;-57
2022/06/02 06:46:45;;;;;;;25.67;14.35;;;10.50;99.90;;;;;;4885347;29;20049;-56
2022/06/02 06:49:34;;;;;;;21.02;13.48;;;10.70;99.90;;;;;;4885543;29;20162;-58
2022/06/02 06:52:02;;;;;;;21.73;13.93;;;10.80;99.90;;;;;;4886337;29;20044;-56
2022/06/02 06:54:39;;;;;;;26.40;14.25;;;10.90;99.90;;;;;;4886220;29;20049;-56
2022/06/02 06:57:16;;;;;;;24.02;14.70;;;11.00;99.90;;;;;;4886362;29;20052;-56
2022/06/02 06:59:53;;;;;;;20.77;12.63;;;11.10;99.90;;;;;;4885363;29;20053;-55
2022/06/02 07:02:44;;;;;;;21.52;12.13;;;11.20;99.90;;;;;;4882774;29;20134;-56
2022/06/02 07:05:19;;;;;;;16.95;10.82;;;11.30;99.90;;;;;;4872781;29;20041;-58
2022/06/02 07:08:15;;;;;;;18.60;10.45;;;11.50;99.90;;;;;;4884514;29;20522;-58
2022/06/02 07:11:01;;;;;;;16.40;10.65;;;11.70;99.90;;;;;;4883878;29;20059;-57
2022/06/02 07:13:53;;;;;;;15.88;10.05;;;11.80;99.90;;;;;;4886907;29;20513;-58
2022/06/02 07:16:27;;;;;;;14.60;9.23;;;11.90;99.90;;;;;;4883124;29;20049;-58
2022/06/02 07:19:32;;;;;;;16.33;9.88;;;12.00;99.90;;;;;;4885041;29;20067;-58
2022/06/02 07:22:12;;;;;;;14.93;9.43;;;12.20;99.90;;;;;;4884733;29;20053;-58
2022/06/02 07:25:02;;;;;;;14.02;8.45;;;12.30;99.90;;;;;;4884923;29;20060;-59
2022/06/02 07:27:48;;;;;;;15.55;9.32;;;12.40;99.90;;;;;;4881966;29;20053;-55
2022/06/02 07:30:48;;;;;;;16.52;8.75;;;12.50;99.90;;;;;;4884374;29;20052;-58
2022/06/02 07:33:50;;;;;;;13.77;8.45;;;12.60;99.90;;;;;;4887140;29;20052;-58
2022/06/02 07:36:49;;;;;;;12.70;8.57;;;12.70;99.90;;;;;;4887261;29;20052;-59
2022/06/02 07:39:51;;;;;;;12.63;8.32;;;12.90;99.90;;;;;;4882443;29;20044;-59
2022/06/02 07:42:48;;;;;;;12.65;7.32;;;13.00;99.90;;;;;;4883383;29;20505;-60
2022/06/02 07:45:41;;;;;;;14.43;8.35;;;13.00;99.90;;;;;;4885531;29;20053;-59
2022/06/02 07:48:18;;;;;;;16.85;8.27;;;13.10;99.90;;;;;;4884415;29;20079;-59
2022/06/02 07:51:04;;;;;;;13.10;8.43;;;13.20;99.90;;;;;;4882513;29;20517;-59
2022/06/02 07:53:40;;;;;;;17.77;7.93;;;13.30;99.90;;;;;;4888224;29;20346;-59
2022/06/02 07:56:26;;;;;;;11.38;7.25;;;13.40;99.90;;;;;;4881701;29;20043;-60
2022/06/02 07:59:16;;;;;;;12.57;7.97;;;13.40;99.90;;;;;;4885777;29;20082;-58
2022/06/02 08:02:03;;;;;;;12.98;7.95;;;13.50;99.90;;;;;;4879995;29;20049;-58
2022/06/02 08:04:45;;;;;;;13.32;6.63;;;13.70;99.90;;;;;;4868022;29;20048;-59
2022/06/02 08:07:44;;;;;;;10.93;7.88;;;13.80;99.90;;;;;;4883161;29;20052;-59
2022/06/02 08:10:33;;;;;;;12.55;6.95;;;13.90;99.90;;;;;;4883668;29;20053;-60
2022/06/02 08:13:15;;;;;;;8.32;6.10;;;14.00;99.90;;;;;;4870916;29;20524;-58
2022/06/02 08:16:12;;;;;;;11.05;6.90;;;14.10;99.90;;;;;;4883353;29;20057;-59
2022/06/02 08:19:08;;;;;;;8.35;5.75;;;14.30;99.90;;;;;;4871239;29;20052;-57
2022/06/02 08:21:42;;;;;;;8.95;6.07;;;14.40;99.90;;;;;;4883939;29;20051;-59
2022/06/02 08:24:28;;;;;;;10.35;6.35;;;14.50;99.90;;;;;;4883376;29;20049;-59
2022/06/02 08:27:21;;;;;;;13.77;7.22;;;14.60;99.90;;;;;;4881607;29;20076;-58
2022/06/02 08:30:04;;;;;;;7.70;5.68;;;14.60;99.90;;;;;;4885084;29;20061;-58
2022/06/02 08:32:56;;;;;;;9.15;5.68;;;14.70;99.90;;;;;;4886982;29;20056;-59
2022/06/02 08:35:39;;;;;;;11.70;6.30;;;14.70;99.90;;;;;;4885039;29;20401;-58
2022/06/02 08:38:26;;;;;;;9.30;5.60;;;14.90;99.90;;;;;;4880429;29;20048;-58
2022/06/02 08:41:28;;;;;;;7.60;5.10;;;14.90;99.90;;;;;;4864463;29;20056;-59
2022/06/02 08:44:12;;;;;;;;;;;15.00;99.90;;;;;;4882387;29;20529;-60
2022/06/02 08:46:54;;;;;;;8.63;5.45;;;15.10;99.90;;;;;;4882658;29;19931;-56
2022/06/02 08:49:37;;;;;;;7.95;5.78;;;15.20;99.90;;;;;;4879904;29;20052;-57
2022/06/02 08:52:05;;;;;;;8.82;5.57;;;15.30;99.90;;;;;;4879698;29;20071;-57
2022/06/02 08:54:57;;;;;;;10.70;5.97;;;15.40;99.90;;;;;;4880933;29;20045;-57
2022/06/02 08:58:19;;;;;;;6.70;4.93;;;15.50;99.90;;;;;;4883343;29;20413;-58
2022/06/02 09:01:06;;;;;;;8.73;4.90;;;15.60;99.90;;;;;;4876470;29;20533;-57
2022/06/02 09:03:53;;;;;;;11.25;5.55;;;15.70;99.90;;;;;;4864826;29;20049;-57
2022/06/02 09:06:46;;;;;;;9.88;5.22;;;15.80;99.90;;;;;;4881956;29;20059;-57
2022/06/02 09:09:28;;;;;;;9.65;5.43;;;15.80;99.90;;;;;;4878950;29;20055;-57
2022/06/02 09:12:39;;;;;;;10.18;5.45;;;15.90;99.90;;;;;;4875220;29;20052;-59
2022/06/02 09:15:07;;;;;;;7.80;5.30;;;16.00;99.90;;;;;;4879521;29;20433;-58
2022/06/02 09:17:53;;;;;;;8.07;5.35;;;16.10;99.90;;;;;;4878898;29;20060;-58
2022/06/02 09:20:33;;;;;;;7.07;5.18;;;16.20;99.90;;;;;;4891591;29;20045;-58
2022/06/02 09:23:25;;;;;;;;;;;16.30;99.90;;;;;;4875312;29;20524;-60
2022/06/02 09:26:13;;;;;;;7.30;4.50;;;16.40;99.90;;;;;;4872606;29;19927;-59
2022/06/02 09:29:02;;;;;;;5.57;4.40;;;16.60;99.90;;;;;;4877709;29;20045;-57
2022/06/02 09:32:08;;;;;;;7.70;4.70;;;16.70;99.90;;;;;;4880698;29;20040;-58
2022/06/02 09:34:48;;;;;;;7.60;5.45;;;16.80;99.90;;;;;;4881169;29;20043;-58
2022/06/02 09:37:33;;;;;;;6.35;4.60;;;16.90;99.90;;;;;;4873234;29;20056;-58
2022/06/02 09:40:37;;;;;;;5.95;4.18;;;17.10;99.90;;;;;;4881446;29;20049;-58
2022/06/02 09:43:08;;;;;;;8.43;5.00;;;17.20;99.90;;;;;;4879982;29;20409;-58
2022/06/02 09:45:54;;;;;;;9.57;5.45;;;17.40;99.90;;;;;;4882598;29;20529;-58
2022/06/02 09:48:53;;;;;;;6.85;4.95;;;17.60;99.90;;;;;;4879305;29;20425;-58
2022/06/02 09:51:41;;;;;;;9.25;5.70;;;17.80;99.90;;;;;;4881850;29;20602;-58
2022/06/02 09:54:45;;;;;;;7.30;5.18;;;18.00;99.90;;;;;;4881080;29;20056;-58
2022/06/02 10:00:19;;;;;;;10.18;4.88;;;18.20;99.90;;;;;;4881479;29;20321;-57
2022/06/02 10:02:52;;;;;;;6.25;4.88;;;18.50;99.90;;;;;;4881676;29;20051;-58
2022/06/02 10:05:43;;;;;;;6.35;4.00;;;18.70;99.20;;;;;;4879877;29;20067;-57
2022/06/02 10:09:05;;;;;;;7.22;4.63;;;18.80;99.20;;;;;;4900264;29;20052;-57
2022/06/02 10:14:59;;;;;;;5.57;4.70;;;19.20;99.20;;;;;;4843276;29;20506;-58
2022/06/02 10:17:46;;;;;;;6.43;3.67;;;19.50;97.60;;;;;;4882727;29;20060;-57
2022/06/02 10:20:41;;;;;;;4.65;3.47;;;19.60;96.30;;;;;;4879743;29;20053;-58
2022/06/02 10:23:33;;;;;;;5.38;3.60;;;19.60;94.60;;;;;;4882942;29;20056;-58
2022/06/02 10:26:29;;;;;;;5.65;3.53;;;19.50;93.70;;;;;;4882856;29;20062;-57
2022/06/02 10:29:18;;;;;;;6.25;4.15;;;19.40;94.10;;;;;;4881067;29;20060;-57
2022/06/02 10:32:15;;;;;;;6.10;4.72;;;19.20;94.50;;;;;;4883484;29;20053;-59
2022/06/02 10:35:05;;;;;;;6.80;3.70;;;19.20;94.80;;;;;;4879067;29;20673;-58
2022/06/02 10:37:57;;;;;;;5.40;3.70;;;19.20;94.60;;;;;;4884979;29;20386;-59
2022/06/02 10:40:44;;;;;;;5.57;4.32;;;19.30;94.80;;;;;;4884971;29;21652;-59
2022/06/02 10:43:51;;;;;;;4.97;4.20;;;19.50;95.00;;;;;;4882587;29;20053;-57
2022/06/02 10:46:58;;;;;;;5.07;3.80;;;19.60;94.70;;;;;;4885063;29;20056;-57
2022/06/02 10:49:55;;;;;;;5.60;4.32;;;19.40;93.60;;;;;;4883197;29;20053;-58
2022/06/02 10:53:00;;;;;;;10.05;4.15;;;19.20;93.50;;;;;;4882644;29;20057;-58
2022/06/02 10:55:30;;;;;;;7.20;3.75;;;19.10;94.10;;;;;;4882606;29;20064;-57
2022/06/02 10:58:13;;;;;;;8.20;3.47;;;19.00;94.70;;;;;;4887141;29;20532;-59
2022/06/02 11:00:49;;;;;;;9.18;4.18;;;19.10;93.60;;;;;;4878819;29;20063;-58
2022/06/02 11:03:41;;;;;;;6.63;4.38;;;18.90;93.70;;;;;;4880824;29;20045;-59
2022/06/02 11:06:30;;;;;;;5.70;3.83;;;19.20;92.10;;;;;;4885215;29;20049;-58
2022/06/02 11:09:18;;;;;;;8.60;4.35;;;19.20;92.40;;;;;;4884878;29;20048;-58
2022/06/02 11:12:13;;;;;;;5.93;4.32;;;19.10;92.70;;;;;;4883465;29;20049;-58
2022/06/02 11:15:12;;;;;;;6.32;3.70;;;19.20;93.60;;;;;;4884354;29;20509;-58
2022/06/02 11:17:57;;;;;;;8.68;4.15;;;19.20;93.90;;;;;;4882701;29;20053;-57
2022/06/02 11:21:02;;;;;;;8.90;4.80;;;19.30;93.10;;;;;;4882016;29;20056;-58
2022/06/02 11:23:53;;;;;;;7.03;4.60;;;19.30;92.80;;;;;;4884199;29;20059;-58
2022/06/02 11:26:39;;;;;;;6.65;4.45;;;19.40;93.70;;;;;;4879118;29;20045;-57
2022/06/02 11:29:28;;;;;;;6.63;4.22;;;19.60;93.00;;;;;;4881527;29;20505;-58
2022/06/02 11:32:26;;;;;;;6.35;3.92;;;19.80;92.30;;;;;;4883817;29;20045;-58
2022/06/02 11:35:18;;;;;;;6.50;3.70;;;20.00;92.10;;;;;;4882060;29;20060;-59
2022/06/02 11:37:58;;;;;;;5.10;4.18;;;20.20;91.90;;;;;;4884507;29;20049;-58
2022/06/02 11:40:59;;;;;;;4.88;4.07;;;20.30;91.20;;;;;;4880057;29;20215;-57
2022/06/02 11:44:06;;;;;;;6.15;4.30;;;20.60;90.80;;;;;;4880938;29;20683;-58
2022/06/02 11:46:43;;;;;;;7.60;4.25;;;20.70;90.10;;;;;;4867403;29;20505;-58
2022/06/02 11:49:42;;;;;;;7.15;4.45;;;20.90;89.80;;;;;;4880717;29;20053;-58
2022/06/02 11:52:52;;;;;;;5.45;3.70;;;21.20;87.50;;;;;;4879673;29;20063;-58
2022/06/02 11:55:42;;;;;;;6.35;4.57;;;21.60;88.60;;;;;;4863554;29;20064;-58
2022/06/02 11:58:28;;;;;;;5.90;4.10;;;22.00;87.20;;;;;;4878658;29;20052;-58
2022/06/02 12:00:55;;;;;;;4.47;4.03;;;22.20;84.00;;;;;;4879838;29;20065;-57
2022/06/02 12:03:35;;;;;;;4.25;2.90;;;22.40;82.30;;;;;;4879335;29;20045;-57
2022/06/02 12:06:37;;;;;;;3.95;3.08;;;22.60;80.70;;;;;;4882521;29;20056;-57
2022/06/02 12:09:36;;;;;;;4.50;3.60;;;22.80;78.00;;;;;;4884742;29;20051;-57
2022/06/02 12:12:29;;;;;;;5.50;3.70;;;22.90;77.50;;;;;;4884160;29;20044;-58
2022/06/02 12:15:15;;;;;;;4.38;3.85;;;22.90;77.40;;;;;;4882911;29;20060;-59
2022/06/02 12:18:12;;;;;;;5.78;3.38;;;23.00;76.60;;;;;;4880355;29;20048;-58
2022/06/02 12:21:08;;;;;;;4.38;2.60;;;22.80;75.90;;;;;;4882426;29;21284;-57
2022/06/02 12:23:55;;;;;;;3.70;2.92;;;22.60;74.50;;;;;;4880575;29;20067;-58
2022/06/02 12:26:42;;;;;;;6.25;3.88;;;22.30;72.20;;;;;;4882934;29;20064;-58
2022/06/02 12:29:39;;;;;;;6.47;3.00;;;22.00;73.20;;;;;;4881321;29;20056;-58
2022/06/02 12:32:50;;;;;;;5.93;3.42;;;21.70;74.80;;;;;;4886202;29;20048;-59
2022/06/02 12:35:24;;;;;;;5.00;3.10;;;21.50;75.90;;;;;;4884493;29;20045;-58
2022/06/02 12:38:17;;;;;;;5.35;3.85;;;21.40;76.70;;;;;;4883916;29;20060;-58
2022/06/02 12:41:11;;;;;;;4.07;3.20;;;21.20;75.00;;;;;;4885191;29;20041;-58
2022/06/02 12:44:13;;;;;;;6.32;3.67;;;21.00;76.30;;;;;;4884415;29;20049;-58
2022/06/02 12:47:04;;;;;;;6.10;3.90;;;20.90;76.80;;;;;;4883517;29;20390;-58
2022/06/02 12:50:14;;;;;;;4.55;3.50;;;20.70;75.80;;;;;;4885265;29;20047;-59
2022/06/02 12:52:56;;;;;;;5.55;3.10;;;20.50;76.30;;;;;;4881645;29;20694;-61
2022/06/02 12:55:36;;;;;;;7.95;3.47;;;20.40;77.50;;;;;;4884211;29;21621;-59
2022/06/02 12:58:23;;;;;;;7.35;3.78;;;20.20;77.90;;;;;;4883045;29;20044;-59
2022/06/02 13:01:20;;;;;;;6.95;3.38;;;20.10;77.00;;;;;;4880114;29;20548;-57
2022/06/02 13:04:23;;;;;;;4.05;3.10;;;20.00;78.50;;;;;;4882211;29;20049;-61
2022/06/02 13:07:10;;;;;;;4.10;2.78;;;19.90;78.50;;;;;;4881642;29;20053;-58
2022/06/02 13:10:05;;;;;;;4.78;2.95;;;19.90;79.50;;;;;;4881325;29;20060;-59
2022/06/02 13:12:54;;;;;;;5.35;3.53;;;19.80;79.20;;;;;;4881612;29;20068;-61
2022/06/02 13:15:30;;;;;;;6.10;3.58;;;19.80;79.20;;;;;;4884143;29;20049;-59
2022/06/02 13:18:29;;;;;;;3.83;3.13;;;19.80;79.50;;;;;;4884254;29;20060;-58
2022/06/02 13:21:09;;;;;;;5.40;3.33;;;19.90;79.70;;;;;;4880863;29;20060;-59
2022/06/02 13:23:40;;;;;;;;;;;20.00;80.20;;;;;;4882800;29;20048;-59
2022/06/02 13:26:29;;;;;;;7.70;4.07;;;20.20;79.60;;;;;;4875212;29;19928;-58
2022/06/02 13:29:06;;;;;;;9.27;3.50;;;20.40;79.70;;;;;;4881619;29;20055;-58
2022/06/02 13:32:11;;;;;;;3.63;3.00;;;20.70;77.40;;;;;;4880184;29;20306;-59
2022/06/02 13:35:15;;;;;;;6.65;3.22;;;20.80;77.40;;;;;;4878454;29;20041;-58
2022/06/02 13:38:25;;;;;;;4.03;2.97;;;20.80;75.50;;;;;;4881683;29;20060;-57
2022/06/02 13:41:19;;;;;;;3.90;3.08;;;20.70;75.70;;;;;;4878758;29;20523;-60
2022/06/02 13:43:58;;;;;;;4.55;3.40;;;20.60;76.00;;;;;;4882088;29;20754;-58
2022/06/02 13:47:17;;;;;;;5.30;3.30;;;20.70;76.30;;;;;;4882403;29;20060;-59
2022/06/02 13:49:47;;;;;;;6.57;3.65;;;20.60;75.80;;;;;;4883201;29;20068;-59
2022/06/02 13:52:34;;;;;;;4.95;3.20;;;20.60;75.60;;;;;;4882356;29;20552;-60
2022/06/02 13:59:03;;;;;;;2.83;2.35;;;20.80;75.10;;;;;;4883974;29;20057;-64
2022/06/02 14:02:03;;;;;;;4.60;2.72;;;21.00;72.10;;;;;;4886890;29;20067;-58
2022/06/02 14:04:37;;;;;;;2.55;2.20;;;21.00;72.30;;;;;;4882865;29;20049;-58
2022/06/02 14:07:16;;;;;;;2.97;2.53;;;20.90;71.80;;;;;;4881794;29;20048;-57
2022/06/02 14:10:18;;;;;;;3.58;2.47;;;20.80;72.10;;;;;;4882827;29;20064;-57
2022/06/02 14:12:48;;;;;;;3.80;2.92;;;20.70;73.10;;;;;;4876555;29;20053;-59
2022/06/02 14:15:43;;;;;;;3.58;2.70;;;20.60;72.40;;;;;;4880357;29;20052;-58
2022/06/02 14:18:16;;;;;;;3.67;2.38;;;20.50;73.70;;;;;;4879901;29;20083;-58
2022/06/02 14:21:15;;;;;;;5.45;3.33;;;20.40;72.40;;;;;;4881918;29;20049;-59
2022/06/02 14:24:11;;;;;;;4.75;2.85;;;20.30;73.50;;;;;;4883699;29;20064;-59
2022/06/02 14:26:57;;;;;;;2.80;2.15;;;20.20;71.90;;;;;;4880614;29;20575;-59
2022/06/02 14:29:44;;;;;;;4.50;3.10;;;20.30;72.80;;;;;;4884227;29;21261;-58
2022/06/02 14:32:32;;;;;;;6.53;3.17;;;20.40;73.90;;;;;;4882834;29;20071;-57
2022/06/02 14:35:25;;;;;;;4.18;3.20;;;20.40;72.40;;;;;;4884887;29;20048;-57
2022/06/02 14:37:57;;;;;;;3.22;2.60;;;20.50;72.50;;;;;;4898643;29;20131;-57
2022/06/02 14:40:46;;;;;;;3.47;2.72;;;20.50;74.30;;;;;;4883142;29;20404;-57
2022/06/02 14:43:23;;;;;;;2.85;2.38;;;20.40;74.70;;;;;;4881883;29;20146;-57
2022/06/02 14:46:00;;;;;;;8.18;2.88;;;20.40;75.50;;;;;;4883105;29;20484;-58
2022/06/02 14:48:42;;;;;;;6.13;2.65;;;20.50;76.10;;;;;;4882147;29;20402;-57
2022/06/02 14:51:25;;;;;;;5.28;2.78;;;20.50;74.60;;;;;;4882458;29;20064;-57
2022/06/02 14:54:12;;;;;;;4.32;2.90;;;20.40;74.50;;;;;;4882985;29;20052;-58